Time;durP1;ratioP1;P1;durP2;ratioP2;P2;SDS_P1;SDS_P2;PMS_P1;PMS_P2;Temp;Humidity;BMP_temperature;BMP_pressure;BME280_temperature;BME280_humidity;BME280_pressure;Samples;Min_cycle;Max_cycle;Signal;HPM_P1;HPM_P2
2023/07/05 00:01:41;;;;;;;20.50;16.17;;;21.30;39.30;;;;;;5013350;28;20181;-54
2023/07/05 00:04:08;;;;;;;21.57;17.33;;;21.30;39.50;;;;;;5013512;28;20257;-53
2023/07/05 00:06:33;;;;;;;23.47;17.70;;;21.20;39.70;;;;;;5013554;28;20174;-55
2023/07/05 00:08:59;;;;;;;24.27;18.53;;;21.20;39.90;;;;;;5012957;28;20449;-52
2023/07/05 00:11:25;;;;;;;20.53;16.93;;;21.10;39.40;;;;;;5012992;28;20239;-52
2023/07/05 00:13:51;;;;;;;20.80;16.33;;;21.10;39.80;;;;;;5013254;28;20178;-54
2023/07/05 00:16:17;;;;;;;21.33;18.00;;;21.10;40.20;;;;;;5013237;28;20921;-55
2023/07/05 00:18:43;;;;;;;19.40;16.98;;;21.10;40.30;;;;;;5013140;28;20206;-52
2023/07/05 00:21:10;;;;;;;21.33;16.70;;;21.10;40.40;;;;;;5011582;28;20189;-55
2023/07/05 00:23:37;;;;;;;20.37;18.17;;;21.00;40.40;;;;;;5012999;28;20167;-55
2023/07/05 00:26:05;;;;;;;23.08;18.60;;;21.00;40.30;;;;;;5012963;28;20405;-55
2023/07/05 00:28:34;;;;;;;26.08;18.40;;;20.90;40.00;;;;;;5012839;28;20248;-52
2023/07/05 00:31:01;;;;;;;21.20;17.60;;;20.90;40.40;;;;;;5011404;28;20175;-55
2023/07/05 00:33:27;;;;;;;21.07;17.63;;;20.90;40.60;;;;;;5012683;28;20206;-54
2023/07/05 00:35:54;;;;;;;21.50;17.87;;;20.90;40.70;;;;;;5012837;28;20440;-54
2023/07/05 00:38:21;;;;;;;21.47;16.97;;;20.90;40.70;;;;;;5012544;28;20245;-54
2023/07/05 00:40:48;;;;;;;19.00;16.47;;;20.90;40.80;;;;;;5012636;28;20500;-52
2023/07/05 00:43:16;;;;;;;19.63;16.70;;;20.80;40.60;;;;;;5011341;28;20999;-52
2023/07/05 00:46:02;;;;;;;21.40;18.58;;;20.80;40.40;;;;;;5012312;28;20179;-54
2023/07/05 00:48:35;;;;;;;23.73;17.55;;;20.80;40.60;;;;;;5012544;28;20221;-53
2023/07/05 00:51:06;;;;;;;25.50;17.80;;;20.70;40.70;;;;;;5012354;28;20183;-54
2023/07/05 00:53:36;;;;;;;21.95;18.20;;;20.70;41.00;;;;;;5012492;28;20402;-54
2023/07/05 00:56:26;;;;;;;21.40;17.77;;;20.70;41.10;;;;;;5012770;28;20229;-55
2023/07/05 00:58:52;;;;;;;23.20;19.77;;;20.70;41.30;;;;;;5011946;28;20519;-54
2023/07/05 01:01:19;;;;;;;20.23;17.40;;;20.70;41.20;;;;;;5012440;28;20170;-56
2023/07/05 01:03:50;;;;;;;20.17;17.92;;;20.70;40.90;;;;;;5012529;28;20413;-54
2023/07/05 01:06:17;;;;;;;24.43;18.97;;;20.70;41.10;;;;;;5012471;28;20174;-54
2023/07/05 01:08:42;;;;;;;23.60;17.90;;;20.70;41.40;;;;;;5012185;28;20453;-53
2023/07/05 01:11:31;;;;;;;23.77;17.97;;;20.70;41.50;;;;;;5012145;28;20436;-55
2023/07/05 01:14:34;;;;;;;22.00;19.50;;;20.70;41.10;;;;;;4993142;28;20191;-53
2023/07/05 01:17:10;;;;;;;22.43;15.57;;;20.70;41.50;;;;;;5008982;28;20471;-53
2023/07/05 01:20:02;;;;;;;19.25;17.02;;;20.50;41.40;;;;;;5012163;28;20461;-55
2023/07/05 01:22:31;;;;;;;23.13;18.97;;;20.60;41.50;;;;;;5012455;28;20155;-52
2023/07/05 01:25:35;;;;;;;20.90;17.53;;;20.50;41.70;;;;;;5012177;28;20845;-52
2023/07/05 01:28:21;;;;;;;22.63;18.17;;;20.50;41.80;;;;;;5012228;28;20425;-55
2023/07/05 01:31:25;;;;;;;20.42;18.15;;;20.50;41.50;;;;;;5012096;28;20546;-52
2023/07/05 01:34:22;;;;;;;25.30;19.30;;;20.50;41.90;;;;;;5011983;28;20209;-53
2023/07/05 01:36:48;;;;;;;24.05;19.05;;;20.50;41.70;;;;;;5012115;28;20171;-54
2023/07/05 01:39:14;;;;;;;20.85;17.38;;;20.40;41.40;;;;;;5012011;28;20206;-55
2023/07/05 01:41:40;;;;;;;22.13;18.40;;;20.40;41.70;;;;;;5012036;28;20540;-55
2023/07/05 01:44:08;;;;;;;21.20;16.80;;;20.50;41.80;;;;;;5011912;28;20438;-53
2023/07/05 01:46:45;;;;;;;21.13;18.90;;;20.50;41.10;;;;;;5012010;28;20830;-55
2023/07/05 01:49:35;;;;;;;26.60;19.17;;;20.50;41.50;;;;;;5011894;28;20256;-52
2023/07/05 01:52:27;;;;;;;20.90;16.75;;;20.50;41.70;;;;;;5011978;28;20401;-54
2023/07/05 01:54:59;;;;;;;22.73;18.50;;;20.50;41.90;;;;;;5012273;28;20174;-53
2023/07/05 01:57:36;;;;;;;21.95;18.00;;;20.50;41.40;;;;;;5014386;28;20159;-52
2023/07/05 02:00:15;;;;;;;21.73;18.35;;;20.50;41.30;;;;;;5015713;28;20253;-54
2023/07/05 02:03:04;;;;;;;20.30;18.13;;;20.40;41.50;;;;;;5015639;28;20147;-54
2023/07/05 02:05:32;;;;;;;26.13;19.08;;;20.50;41.70;;;;;;5015809;28;20178;-54
2023/07/05 02:07:59;;;;;;;19.50;16.37;;;20.40;41.60;;;;;;5014158;28;20756;-54
2023/07/05 02:10:25;;;;;;;25.92;18.77;;;20.40;41.50;;;;;;5014417;28;20382;-52
2023/07/05 02:12:52;;;;;;;22.80;17.15;;;20.40;41.70;;;;;;5015440;28;20194;-54
2023/07/05 02:15:19;;;;;;;22.80;18.35;;;20.40;41.70;;;;;;5015593;28;20179;-54
2023/07/05 02:17:45;;;;;;;19.83;17.17;;;20.40;41.60;;;;;;5015247;28;20526;-53
2023/07/05 02:20:11;;;;;;;21.07;17.97;;;20.40;41.60;;;;;;5014977;28;20208;-54
2023/07/05 02:22:37;;;;;;;24.00;19.03;;;20.40;41.50;;;;;;5015282;28;20167;-55
2023/07/05 02:25:03;;;;;;;24.83;17.60;;;20.30;41.60;;;;;;5015458;28;20408;-52
2023/07/05 02:27:29;;;;;;;24.50;19.05;;;20.30;41.50;;;;;;5015079;28;20198;-55
2023/07/05 02:29:55;;;;;;;22.23;18.63;;;20.20;41.00;;;;;;5014732;28;20205;-54
2023/07/05 02:32:22;;;;;;;22.67;18.63;;;20.20;40.80;;;;;;5015351;28;20182;-52
2023/07/05 02:34:48;;;;;;;20.23;15.65;;;20.20;40.80;;;;;;5014887;28;20409;-54
2023/07/05 02:37:14;;;;;;;22.30;18.50;;;20.10;41.20;;;;;;5015130;28;20179;-53
2023/07/05 02:39:40;;;;;;;27.92;19.27;;;20.10;41.50;;;;;;5014501;28;20459;-53
2023/07/05 02:42:07;;;;;;;24.27;18.05;;;20.20;41.50;;;;;;5015116;28;20175;-53
2023/07/05 02:44:33;;;;;;;21.05;17.90;;;20.10;41.90;;;;;;5013817;28;20171;-54
2023/07/05 02:46:58;;;;;;;23.80;18.70;;;20.20;41.40;;;;;;5015002;28;20185;-55
2023/07/05 02:49:24;;;;;;;21.93;19.57;;;20.20;41.40;;;;;;5014367;28;20554;-52
2023/07/05 02:51:50;;;;;;;23.43;19.17;;;20.10;41.30;;;;;;5014673;28;20186;-53
2023/07/05 02:54:16;;;;;;;21.70;19.30;;;20.20;40.90;;;;;;5014600;28;20508;-55
2023/07/05 02:56:42;;;;;;;23.97;19.60;;;20.20;41.00;;;;;;5014876;28;20408;-54
2023/07/05 02:59:08;;;;;;;23.67;18.70;;;20.20;40.80;;;;;;5014191;28;20456;-53
2023/07/05 03:01:34;;;;;;;22.20;18.77;;;20.20;40.80;;;;;;5014642;28;20170;-55
2023/07/05 03:03:59;;;;;;;24.83;19.20;;;20.20;40.50;;;;;;5014440;28;20167;-53
2023/07/05 03:06:25;;;;;;;24.43;20.10;;;20.20;40.30;;;;;;5014588;28;20913;-53
2023/07/05 03:08:51;;;;;;;24.23;18.10;;;20.20;40.30;;;;;;5013900;28;20602;-53
2023/07/05 03:11:16;;;;;;;26.37;20.03;;;20.20;40.30;;;;;;5014166;28;20298;-55
2023/07/05 03:13:42;;;;;;;24.73;20.20;;;20.20;40.10;;;;;;5014496;28;20273;-55
2023/07/05 03:16:08;;;;;;;26.43;18.67;;;20.20;40.10;;;;;;5014255;28;20265;-55
2023/07/05 03:18:34;;;;;;;20.67;18.37;;;20.20;40.30;;;;;;5014379;28;20210;-52
2023/07/05 03:21:00;;;;;;;23.63;19.70;;;20.10;40.40;;;;;;5013924;28;20727;-54
2023/07/05 03:23:26;;;;;;;22.27;19.77;;;20.10;40.00;;;;;;5014356;28;20178;-54
2023/07/05 03:26:00;;;;;;;23.30;18.53;;;20.10;40.00;;;;;;5014370;28;20175;-55
2023/07/05 03:28:29;;;;;;;23.08;17.83;;;20.10;40.00;;;;;;5013827;28;20507;-54
2023/07/05 03:30:58;;;;;;;24.70;19.55;;;20.10;40.10;;;;;;5014027;28;20254;-55
2023/07/05 03:33:24;;;;;;;24.60;20.42;;;20.10;40.00;;;;;;5013891;28;20167;-53
2023/07/05 03:35:58;;;;;;;21.93;19.53;;;20.00;39.90;;;;;;5014191;28;20236;-52
2023/07/05 03:38:25;;;;;;;23.42;19.40;;;20.00;39.90;;;;;;5013632;28;20418;-57
2023/07/05 03:41:02;;;;;;;26.67;19.65;;;20.00;40.00;;;;;;5013498;28;20171;-52
2023/07/05 03:43:33;;;;;;;24.40;19.73;;;20.00;40.70;;;;;;5013955;28;20170;-55
2023/07/05 03:46:00;;;;;;;21.00;18.65;;;19.90;40.20;;;;;;5013888;28;20203;-55
2023/07/05 03:48:28;;;;;;;25.77;19.38;;;19.90;40.30;;;;;;5013609;28;20317;-53
2023/07/05 03:50:58;;;;;;;25.83;20.75;;;19.90;40.30;;;;;;5013375;28;20185;-53
2023/07/05 03:53:25;;;;;;;23.55;19.20;;;20.00;40.20;;;;;;5013389;28;20665;-57
2023/07/05 03:55:51;;;;;;;32.45;18.65;;;20.00;40.10;;;;;;5013547;28;20221;-52
2023/07/05 03:58:17;;;;;;;23.42;19.67;;;20.00;40.00;;;;;;5013580;28;20244;-55
2023/07/05 04:00:42;;;;;;;25.83;19.53;;;20.00;40.00;;;;;;5013275;28;20632;-53
2023/07/05 04:03:08;;;;;;;21.20;17.90;;;20.00;40.10;;;;;;5013349;28;20393;-53
2023/07/05 04:05:34;;;;;;;25.27;18.80;;;20.10;40.20;;;;;;5013377;28;20174;-55
2023/07/05 04:08:00;;;;;;;24.33;19.40;;;20.10;40.00;;;;;;5012979;28;20456;-56
2023/07/05 04:10:26;;;;;;;22.23;19.03;;;20.10;39.90;;;;;;5013285;28;20187;-53
2023/07/05 04:12:52;;;;;;;21.00;17.17;;;20.20;39.80;;;;;;5013207;28;20441;-53
2023/07/05 04:15:19;;;;;;;22.67;19.00;;;20.20;39.90;;;;;;5013334;28;20420;-56
2023/07/05 04:17:45;;;;;;;24.00;19.23;;;20.30;39.80;;;;;;5013021;28;20909;-53
2023/07/05 04:20:11;;;;;;;23.33;19.00;;;20.30;40.20;;;;;;5012091;28;20206;-54
2023/07/05 04:22:39;;;;;;;24.40;20.45;;;20.40;39.50;;;;;;5012939;28;20406;-54
2023/07/05 04:25:05;;;;;;;26.30;18.83;;;20.50;39.90;;;;;;5013191;28;20175;-56
2023/07/05 04:27:32;;;;;;;21.63;17.88;;;20.60;39.40;;;;;;5013034;28;20177;-53
2023/07/05 04:29:57;;;;;;;24.02;19.27;;;20.70;39.50;;;;;;5012736;28;20220;-55
2023/07/05 04:32:23;;;;;;;22.47;18.63;;;20.70;39.60;;;;;;5012812;28;20694;-54
2023/07/05 04:34:49;;;;;;;25.10;18.50;;;20.80;39.50;;;;;;5013040;28;20189;-53
2023/07/05 04:37:15;;;;;;;30.03;19.87;;;20.90;39.10;;;;;;5013009;28;20175;-57
2023/07/05 04:39:40;;;;;;;22.60;19.00;;;21.00;38.80;;;;;;5012458;28;20693;-57
2023/07/05 04:42:06;;;;;;;25.13;19.23;;;21.10;39.10;;;;;;5012716;28;20166;-53
2023/07/05 04:44:32;;;;;;;20.83;18.47;;;21.20;39.10;;;;;;5012630;28;20170;-53
2023/07/05 04:46:58;;;;;;;21.53;19.20;;;21.40;38.60;;;;;;5012666;28;20548;-56
2023/07/05 04:49:23;;;;;;;23.13;19.47;;;21.40;38.90;;;;;;5012273;28;20670;-53
2023/07/05 04:51:49;;;;;;;25.50;20.27;;;21.50;38.30;;;;;;5012606;28;20186;-53
2023/07/05 04:54:16;;;;;;;23.03;19.00;;;21.60;37.90;;;;;;5012611;28;20177;-55
2023/07/05 04:56:42;;;;;;;24.58;19.80;;;21.60;38.00;;;;;;5012625;28;20578;-55
2023/07/05 04:59:10;;;;;;;24.50;19.00;;;21.60;38.10;;;;;;5012224;28;20202;-52
2023/07/05 05:01:37;;;;;;;24.43;19.37;;;21.60;38.20;;;;;;5012444;28;20413;-56
2023/07/05 05:04:03;;;;;;;20.27;17.60;;;21.70;38.20;;;;;;5012308;28;20405;-54
2023/07/05 05:06:29;;;;;;;23.73;17.40;;;21.70;38.10;;;;;;5012312;28;20402;-54
2023/07/05 05:08:55;;;;;;;20.10;17.93;;;21.80;38.30;;;;;;5012214;28;20445;-56
2023/07/05 05:11:21;;;;;;;21.97;18.77;;;21.90;37.90;;;;;;5012178;28;20266;-53
2023/07/05 05:13:49;;;;;;;25.53;19.37;;;21.90;38.20;;;;;;5012339;28;20405;-53
2023/07/05 05:16:15;;;;;;;23.17;18.37;;;22.10;38.20;;;;;;5012262;28;20818;-55
2023/07/05 05:18:43;;;;;;;26.98;19.63;;;22.10;37.90;;;;;;5012123;28;20523;-52
2023/07/05 05:21:09;;;;;;;21.60;17.40;;;22.20;37.90;;;;;;5012367;28;20236;-52
2023/07/05 05:23:35;;;;;;;22.13;18.50;;;22.20;37.60;;;;;;5012362;28;20402;-57
2023/07/05 05:26:01;;;;;;;28.47;19.43;;;22.20;37.90;;;;;;5012433;28;20406;-56
2023/07/05 05:28:27;;;;;;;22.50;17.87;;;22.30;38.20;;;;;;5012242;28;20456;-54
2023/07/05 05:31:02;;;;;;;21.53;18.33;;;22.40;38.20;;;;;;5013621;28;20404;-53
2023/07/05 05:33:28;;;;;;;23.70;19.40;;;22.50;37.90;;;;;;5016080;28;20191;-55
2023/07/05 05:35:53;;;;;;;23.97;18.97;;;22.50;38.30;;;;;;5016458;28;20405;-55
2023/07/05 05:38:20;;;;;;;22.10;18.20;;;22.70;38.50;;;;;;5016135;28;20198;-53
2023/07/05 05:40:48;;;;;;;28.87;19.07;;;22.80;38.20;;;;;;5015806;28;20654;-53
2023/07/05 05:43:14;;;;;;;22.80;17.77;;;23.00;38.20;;;;;;5016034;28;20441;-55
2023/07/05 05:45:42;;;;;;;20.00;17.07;;;23.20;37.40;;;;;;5015833;28;20425;-53
2023/07/05 05:48:08;;;;;;;22.03;17.93;;;23.40;36.80;;;;;;5015840;28;20425;-53
2023/07/05 05:50:33;;;;;;;22.20;17.60;;;23.60;36.80;;;;;;5015824;28;20416;-55
2023/07/05 05:52:59;;;;;;;21.70;17.67;;;23.80;36.10;;;;;;5015984;28;20186;-56
2023/07/05 05:55:25;;;;;;;21.33;18.30;;;24.00;36.20;;;;;;5015737;28;20405;-53
2023/07/05 05:57:51;;;;;;;21.63;17.93;;;24.00;35.40;;;;;;5015911;28;20417;-53
2023/07/05 06:00:17;;;;;;;20.20;17.57;;;24.10;35.10;;;;;;5015352;28;20459;-55
2023/07/05 06:02:43;;;;;;;21.27;17.03;;;24.20;34.70;;;;;;5015653;28;20181;-53
2023/07/05 06:05:10;;;;;;;23.80;17.23;;;24.20;34.50;;;;;;5015788;28;20925;-54
2023/07/05 06:07:35;;;;;;;23.50;17.73;;;24.20;33.90;;;;;;5014101;28;20181;-55
2023/07/05 06:10:01;;;;;;;23.87;19.47;;;24.30;34.20;;;;;;5015303;28;20780;-53
2023/07/05 06:12:27;;;;;;;20.63;16.87;;;24.50;34.70;;;;;;5015477;28;20179;-53
2023/07/05 06:14:52;;;;;;;20.77;17.80;;;24.70;34.80;;;;;;5015344;28;20262;-55
2023/07/05 06:17:18;;;;;;;22.17;19.10;;;24.90;34.20;;;;;;5015386;28;20279;-53
2023/07/05 06:19:44;;;;;;;22.37;18.03;;;25.10;33.50;;;;;;5015176;28;20296;-56
2023/07/05 06:22:10;;;;;;;24.00;18.60;;;25.20;33.50;;;;;;5015239;28;20171;-53
2023/07/05 06:24:35;;;;;;;21.60;16.70;;;25.40;32.50;;;;;;5015214;28;20179;-55
2023/07/05 06:27:01;;;;;;;22.90;17.83;;;25.50;32.70;;;;;;5015153;28;20181;-55
2023/07/05 06:29:27;;;;;;;20.73;16.53;;;25.60;31.60;;;;;;5014694;28;20237;-53
2023/07/05 06:31:53;;;;;;;21.73;17.43;;;25.70;31.60;;;;;;5015008;28;20766;-53
2023/07/05 06:34:19;;;;;;;19.97;17.10;;;25.80;31.60;;;;;;5015200;28;20413;-56
2023/07/05 06:36:44;;;;;;;18.83;16.83;;;25.80;31.20;;;;;;5014998;28;20202;-53
2023/07/05 06:39:10;;;;;;;21.63;17.23;;;25.80;31.50;;;;;;5014708;28;20265;-53
2023/07/05 06:41:36;;;;;;;20.20;18.10;;;25.80;31.80;;;;;;5014603;28;20542;-55
2023/07/05 06:44:02;;;;;;;21.33;17.70;;;25.80;32.20;;;;;;5014703;28;20182;-53
2023/07/05 06:46:27;;;;;;;17.93;15.53;;;25.90;31.90;;;;;;5014749;28;20265;-55
2023/07/05 06:48:53;;;;;;;25.57;18.03;;;25.90;32.10;;;;;;5014877;28;20471;-56
2023/07/05 06:51:19;;;;;;;21.70;17.97;;;25.90;31.50;;;;;;5014490;28;20278;-53
2023/07/05 06:53:45;;;;;;;21.70;17.87;;;25.90;31.50;;;;;;5013404;28;20269;-56
2023/07/05 06:56:10;;;;;;;18.93;16.93;;;26.00;32.10;;;;;;5014651;28;20174;-53
2023/07/05 06:58:37;;;;;;;30.50;18.47;;;26.10;32.50;;;;;;5014362;28;20223;-56
2023/07/05 07:01:03;;;;;;;20.40;17.07;;;26.10;31.90;;;;;;5014281;28;20890;-53
2023/07/05 07:03:29;;;;;;;20.77;16.87;;;26.20;31.50;;;;;;5014559;28;20440;-53
2023/07/05 07:05:57;;;;;;;25.47;17.80;;;26.20;32.00;;;;;;5014527;28;20744;-56
2023/07/05 07:08:28;;;;;;;23.37;17.73;;;26.30;31.70;;;;;;5014208;28;21123;-54
2023/07/05 07:10:54;;;;;;;20.57;16.60;;;26.40;32.10;;;;;;5014438;28;20426;-55
2023/07/05 07:13:19;;;;;;;18.73;16.73;;;26.60;32.30;;;;;;5014107;28;20492;-53
2023/07/05 07:15:45;;;;;;;18.57;16.57;;;26.70;32.80;;;;;;5014357;28;20178;-54
2023/07/05 07:18:11;;;;;;;19.40;17.07;;;26.90;32.20;;;;;;5014441;28;20195;-56
2023/07/05 07:20:38;;;;;;;20.40;16.93;;;27.00;32.20;;;;;;5013935;28;20206;-54
2023/07/05 07:23:04;;;;;;;18.67;15.40;;;27.20;32.40;;;;;;5014214;28;20178;-56
2023/07/05 07:25:30;;;;;;;15.50;14.00;;;27.30;31.30;;;;;;5014075;28;20469;-57
2023/07/05 07:27:55;;;;;;;16.30;13.27;;;27.30;31.70;;;;;;5013878;28;20458;-54
2023/07/05 07:30:21;;;;;;;14.27;12.77;;;27.30;31.20;;;;;;5014051;28;20185;-54
2023/07/05 07:32:47;;;;;;;15.63;10.93;;;27.40;32.10;;;;;;5013959;28;20201;-56
2023/07/05 07:35:14;;;;;;;15.23;11.20;;;27.50;31.10;;;;;;5014133;28;20179;-55
2023/07/05 07:37:40;;;;;;;13.33;11.07;;;27.50;32.20;;;;;;5013780;28;20468;-54
2023/07/05 07:40:07;;;;;;;13.60;10.20;;;27.60;32.10;;;;;;5013530;28;20791;-56
2023/07/05 07:42:33;;;;;;;10.47;8.00;;;27.70;31.30;;;;;;5013647;28;20913;-56
2023/07/05 07:44:59;;;;;;;10.50;7.40;;;27.80;31.40;;;;;;5014006;28;20409;-56
2023/07/05 07:47:25;;;;;;;11.27;7.93;;;27.90;31.20;;;;;;5013716;28;20413;-54
2023/07/05 07:49:51;;;;;;;16.73;8.00;;;28.10;30.30;;;;;;5013412;28;20429;-55
2023/07/05 07:52:18;;;;;;;14.17;6.53;;;28.20;30.50;;;;;;5013652;28;20185;-56
2023/07/05 07:54:44;;;;;;;8.37;6.27;;;28.40;29.60;;;;;;5012622;28;20647;-53
2023/07/05 07:57:10;;;;;;;8.73;6.10;;;28.50;30.40;;;;;;5013692;28;20457;-57
2023/07/05 07:59:40;;;;;;;8.80;6.77;;;28.70;30.10;;;;;;5013185;28;20462;-55
2023/07/05 08:02:13;;;;;;;9.70;7.37;;;28.80;29.60;;;;;;5013576;28;20261;-55
2023/07/05 08:04:45;;;;;;;12.60;6.80;;;28.90;28.60;;;;;;5013409;28;20528;-57
2023/07/05 08:07:14;;;;;;;10.33;5.90;;;28.90;29.20;;;;;;5013417;28;20762;-56
2023/07/05 08:09:40;;;;;;;6.30;5.07;;;29.00;28.70;;;;;;5012805;28;20457;-55
2023/07/05 08:12:06;;;;;;;8.30;5.17;;;29.20;29.80;;;;;;5013194;28;20418;-55
2023/07/05 08:14:39;;;;;;;6.57;4.50;;;29.40;30.70;;;;;;5089622;27;21122;-57
2023/07/05 08:17:04;;;;;;;10.13;4.67;;;29.50;28.20;;;;;;5089596;28;20402;-54
2023/07/05 08:19:31;;;;;;;6.40;4.00;;;29.50;27.00;;;;;;5089511;28;20188;-55
2023/07/05 08:21:57;;;;;;;7.57;5.27;;;29.40;27.60;;;;;;5089746;28;20448;-57
2023/07/05 08:24:23;;;;;;;8.87;6.50;;;29.30;27.60;;;;;;5089428;28;20406;-54
2023/07/05 08:26:49;;;;;;;9.03;6.73;;;29.20;27.90;;;;;;5088185;28;20493;-54
2023/07/05 08:29:15;;;;;;;10.57;7.67;;;29.20;28.60;;;;;;5089134;28;20415;-57
2023/07/05 08:31:41;;;;;;;10.17;7.20;;;29.20;28.80;;;;;;5089422;28;20402;-54
2023/07/05 08:34:08;;;;;;;8.40;6.57;;;29.20;29.10;;;;;;5089231;28;20199;-53
2023/07/05 08:36:39;;;;;;;12.23;7.43;;;29.20;28.40;;;;;;5089104;28;20406;-56
2023/07/05 08:39:06;;;;;;;9.30;6.07;;;29.20;28.20;;;;;;5089124;28;20425;-55
2023/07/05 08:41:46;;;;;;;9.83;6.07;;;29.20;28.60;;;;;;5089030;28;21087;-55
2023/07/05 08:44:29;;;;;;;9.63;6.23;;;29.20;28.70;;;;;;5089059;28;20781;-53
2023/07/05 08:47:03;;;;;;;8.10;5.53;;;29.30;29.40;;;;;;5088979;28;20445;-57
2023/07/05 08:49:45;;;;;;;11.40;5.00;;;29.30;28.80;;;;;;5088899;28;20435;-54
2023/07/05 08:52:48;;;;;;;9.27;6.50;;;29.50;30.20;;;;;;5088994;28;20742;-54
2023/07/05 08:55:24;;;;;;;6.03;5.03;;;29.60;29.00;;;;;;5088489;28;20431;-58
2023/07/05 08:57:53;;;;;;;8.17;5.40;;;29.70;28.10;;;;;;5089059;28;20410;-57
2023/07/05 09:00:39;;;;;;;6.80;5.80;;;29.80;28.50;;;;;;5088500;28;20894;-54
2023/07/05 09:03:11;;;;;;;6.77;5.60;;;30.00;28.50;;;;;;5088504;28;20422;-56
2023/07/05 09:06:08;;;;;;;7.10;5.57;;;29.90;27.30;;;;;;5088568;28;20468;-54
2023/07/05 09:08:55;;;;;;;8.07;5.50;;;30.10;29.30;;;;;;5088750;28;20833;-56
2023/07/05 09:11:26;;;;;;;8.00;5.70;;;30.10;27.80;;;;;;5088388;28;20453;-55
2023/07/05 09:14:05;;;;;;;7.53;5.10;;;30.10;29.40;;;;;;5088360;28;20458;-55
2023/07/05 09:16:43;;;;;;;8.60;5.57;;;30.10;27.90;;;;;;5088501;28;20875;-56
2023/07/05 09:19:16;;;;;;;8.10;5.77;;;30.10;27.80;;;;;;5088254;28;20504;-53
2023/07/05 09:22:06;;;;;;;8.73;6.40;;;30.00;27.40;;;;;;5088368;28;20394;-53
2023/07/05 09:24:41;;;;;;;10.70;7.53;;;29.80;27.30;;;;;;5082797;28;20437;-58
2023/07/05 09:27:19;;;;;;;7.60;5.40;;;29.70;28.20;;;;;;5074857;28;20452;-55
2023/07/05 09:29:47;;;;;;;9.00;5.67;;;29.70;29.60;;;;;;5074483;28;20433;-56
2023/07/05 09:32:18;;;;;;;9.10;5.20;;;29.70;28.60;;;;;;5074659;28;20419;-53
2023/07/05 09:34:50;;;;;;;8.43;5.83;;;29.60;27.30;;;;;;5074672;28;20407;-55
2023/07/05 09:37:17;;;;;;;9.93;6.33;;;29.60;28.60;;;;;;5074609;28;20406;-56
2023/07/05 09:39:48;;;;;;;11.00;5.30;;;29.50;27.40;;;;;;5074269;28;20430;-54
2023/07/05 09:42:24;;;;;;;8.07;4.70;;;29.60;27.80;;;;;;5073265;28;20457;-54
2023/07/05 09:44:49;;;;;;;9.80;6.17;;;29.60;28.00;;;;;;5074454;28;20421;-56
2023/07/05 09:47:15;;;;;;;6.50;4.70;;;29.60;28.00;;;;;;5074760;28;20902;-57
2023/07/05 09:49:41;;;;;;;10.37;5.00;;;29.60;28.20;;;;;;5073994;28;20275;-54
2023/07/05 09:52:21;;;;;;;9.50;4.00;;;29.60;28.30;;;;;;5074337;28;20170;-56
2023/07/05 09:54:50;;;;;;;5.20;3.50;;;29.70;28.30;;;;;;5074546;28;20156;-53
2023/07/05 09:57:24;;;;;;;6.30;3.67;;;29.70;28.90;;;;;;5072922;28;20416;-54
2023/07/05 09:59:52;;;;;;;10.70;4.67;;;29.80;28.30;;;;;;5073898;28;20421;-54
2023/07/05 10:02:29;;;;;;;8.03;4.07;;;29.80;29.40;;;;;;5074110;28;20770;-55
2023/07/05 10:04:59;;;;;;;5.10;3.60;;;29.90;28.80;;;;;;5074373;28;20390;-54
2023/07/05 10:07:28;;;;;;;4.77;3.53;;;29.90;28.40;;;;;;5072750;28;20403;-53
2023/07/05 10:10:09;;;;;;;8.87;3.43;;;30.10;29.00;;;;;;5073727;28;20418;-56
2023/07/05 10:12:40;;;;;;;8.83;5.57;;;30.10;28.20;;;;;;5073724;28;20464;-54
2023/07/05 10:15:23;;;;;;;11.73;7.60;;;30.10;27.70;;;;;;5074072;28;20478;-56
2023/07/05 10:17:53;;;;;;;10.73;7.00;;;30.10;27.50;;;;;;5073799;28;20434;-54
2023/07/05 10:20:23;;;;;;;10.17;7.77;;;30.00;27.30;;;;;;5073655;28;21029;-56
2023/07/05 10:23:04;;;;;;;12.47;8.10;;;30.00;27.20;;;;;;5074000;28;20398;-54
2023/07/05 10:25:38;;;;;;;12.53;8.10;;;30.10;27.60;;;;;;5073970;28;20403;-56
2023/07/05 10:28:05;;;;;;;13.43;7.50;;;30.00;27.90;;;;;;5072390;28;20484;-58
2023/07/05 10:30:31;;;;;;;11.30;7.40;;;30.00;28.40;;;;;;5073475;28;20411;-54
2023/07/05 10:33:15;;;;;;;9.43;7.23;;;30.00;28.90;;;;;;5073738;28;20454;-53
2023/07/05 10:36:05;;;;;;;10.87;6.33;;;30.20;29.00;;;;;;5073378;28;20403;-54
2023/07/05 10:38:47;;;;;;;5.70;4.70;;;30.30;28.90;;;;;;5071933;28;20458;-54
2023/07/05 10:41:33;;;;;;;6.53;4.77;;;30.20;28.10;;;;;;5073261;28;20393;-54
2023/07/05 10:44:06;;;;;;;5.90;4.77;;;30.20;27.70;;;;;;5073490;28;20421;-56
2023/07/05 10:46:36;;;;;;;7.30;5.13;;;30.10;28.00;;;;;;5073320;28;20395;-56
2023/07/05 10:49:06;;;;;;;4.30;3.20;;;30.00;29.10;;;;;;5072205;28;20445;-54
2023/07/05 10:51:40;;;;;;;8.90;4.10;;;30.10;28.10;;;;;;5073139;28;20417;-54
2023/07/05 10:54:21;;;;;;;6.23;3.00;;;29.90;27.80;;;;;;5073278;28;20533;-54
2023/07/05 10:56:48;;;;;;;5.97;3.27;;;29.80;27.80;;;;;;5073491;28;20388;-56
2023/07/05 10:59:17;;;;;;;6.47;2.77;;;29.70;28.60;;;;;;5072857;28;20791;-56
2023/07/05 11:01:54;;;;;;;8.60;3.37;;;29.70;27.70;;;;;;5072928;28;20399;-54
2023/07/05 11:04:22;;;;;;;13.83;3.17;;;29.70;28.30;;;;;;5072853;28;20406;-56
2023/07/05 11:06:51;;;;;;;4.37;3.07;;;29.60;27.60;;;;;;5073069;28;20414;-54
2023/07/05 11:09:18;;;;;;;4.93;2.77;;;29.60;27.50;;;;;;5072722;28;20533;-53
2023/07/05 11:11:58;;;;;;;4.57;2.37;;;29.50;27.40;;;;;;5073043;28;20502;-57
2023/07/05 11:14:28;;;;;;;4.50;2.67;;;29.50;27.10;;;;;;5072558;28;20463;-54
2023/07/05 11:16:57;;;;;;;5.90;3.13;;;29.40;27.90;;;;;;5072928;28;20867;-57
2023/07/05 11:19:27;;;;;;;5.33;2.73;;;29.40;27.40;;;;;;5072342;28;20430;-53
2023/07/05 11:21:54;;;;;;;4.40;2.90;;;29.40;28.30;;;;;;5072515;28;20417;-53
2023/07/05 11:24:44;;;;;;;5.67;2.40;;;29.50;27.70;;;;;;5071338;28;20406;-53
2023/07/05 11:27:24;;;;;;;5.03;2.40;;;29.70;28.80;;;;;;5072704;28;20414;-56
2023/07/05 11:29:52;;;;;;;5.70;3.10;;;30.00;28.00;;;;;;5072452;28;20853;-54
2023/07/05 11:32:23;;;;;;;6.43;2.57;;;30.20;27.70;;;;;;5072239;28;20472;-56
2023/07/05 11:34:54;;;;;;;4.00;2.30;;;30.50;29.30;;;;;;5072364;28;20422;-53
2023/07/05 11:37:20;;;;;;;5.33;2.40;;;30.90;26.80;;;;;;5072311;28;20427;-56
2023/07/05 11:39:47;;;;;;;6.13;2.77;;;31.10;26.20;;;;;;5072014;28;20473;-54
2023/07/05 11:42:15;;;;;;;5.70;2.20;;;31.40;27.90;;;;;;5072214;28;20176;-56
2023/07/05 11:44:48;;;;;;;5.43;2.80;;;31.60;25.60;;;;;;5072220;28;20445;-56
2023/07/05 11:47:22;;;;;;;4.50;2.30;;;31.70;25.10;;;;;;5072218;28;20417;-53
2023/07/05 11:50:01;;;;;;;6.63;3.53;;;31.80;27.50;;;;;;5072231;28;20825;-55
2023/07/05 11:52:31;;;;;;;7.47;3.30;;;31.90;25.50;;;;;;5071992;28;20413;-55
2023/07/05 11:55:02;;;;;;;6.27;2.60;;;31.90;26.00;;;;;;5072469;28;20407;-53
2023/07/05 11:57:34;;;;;;;4.83;3.00;;;32.10;26.80;;;;;;5072116;28;20383;-55
2023/07/05 12:00:17;;;;;;;5.70;3.33;;;31.90;25.00;;;;;;5071796;28;20418;-58
2023/07/05 12:02:56;;;;;;;7.90;2.93;;;31.90;26.30;;;;;;5072191;28;20407;-54
2023/07/05 12:05:26;;;;;;;5.27;2.90;;;31.60;25.30;;;;;;5071996;28;20441;-57
2023/07/05 12:08:12;;;;;;;5.50;2.70;;;31.60;25.70;;;;;;5072168;28;20399;-56
2023/07/05 12:10:47;;;;;;;6.47;3.30;;;31.70;27.10;;;;;;5071755;28;20398;-53
2023/07/05 12:13:19;;;;;;;9.33;3.33;;;31.50;26.60;;;;;;5071631;28;20829;-56
2023/07/05 12:15:45;;;;;;;4.33;2.50;;;31.40;27.10;;;;;;5072023;28;20732;-56
2023/07/05 12:18:14;;;;;;;8.93;2.67;;;31.20;27.70;;;;;;5071853;28;20430;-54
2023/07/05 12:20:49;;;;;;;5.30;1.90;;;31.10;27.70;;;;;;5071900;28;20410;-56
2023/07/05 12:23:18;;;;;;;8.30;2.57;;;30.80;27.10;;;;;;5071858;28;20408;-56
2023/07/05 12:25:53;;;;;;;6.73;3.03;;;30.50;27.50;;;;;;5071718;28;20973;-53
2023/07/05 12:28:31;;;;;;;8.77;2.63;;;30.30;27.80;;;;;;5072020;28;20513;-57
2023/07/05 12:31:03;;;;;;;4.33;1.80;;;30.10;29.00;;;;;;5071647;28;20391;-55
2023/07/05 12:33:35;;;;;;;5.07;2.47;;;29.90;28.40;;;;;;5071978;28;20483;-56
2023/07/05 12:36:15;;;;;;;7.17;1.87;;;29.90;29.00;;;;;;5071702;28;20406;-55
2023/07/05 12:38:43;;;;;;;13.77;2.50;;;29.90;28.00;;;;;;5071609;28;21068;-56
2023/07/05 12:41:24;;;;;;;8.70;2.57;;;29.60;29.00;;;;;;5071670;28;20415;-53
2023/07/05 12:43:58;;;;;;;4.57;1.80;;;29.40;29.40;;;;;;5071761;28;20391;-56
2023/07/05 12:46:27;;;;;;;4.13;2.40;;;29.20;30.00;;;;;;5071688;28;20420;-53
2023/07/05 12:48:53;;;;;;;10.50;3.03;;;29.10;30.30;;;;;;5070247;28;20442;-56